Time;durP1;ratioP1;P1;durP2;ratioP2;P2;SDS_P1;SDS_P2;PMS_P1;PMS_P2;Temp;Humidity;BMP_temperature;BMP_pressure;BME280_temperature;BME280_humidity;BME280_pressure;Samples;Min_cycle;Max_cycle;Signal;HPM_P1;HPM_P2
2021/07/09 00:01:32;;;;;;;9.05;6.32;;;;;;;18.69;73.43;101178.16;5050100;28;20115;-82
2021/07/09 00:03:57;;;;;;;19.52;7.53;;;;;;;18.72;73.91;101180.56;5051463;28;20025;-82
2021/07/09 00:06:23;;;;;;;9.45;6.40;;;;;;;18.66;73.46;101182.91;5051519;28;20055;-82
2021/07/09 00:08:49;;;;;;;10.38;6.35;;;;;;;18.53;74.16;101186.66;5051635;28;20036;-82
2021/07/09 00:11:16;;;;;;;10.43;5.75;;;;;;;18.48;73.73;101174.75;5051495;28;20397;-82
2021/07/09 00:13:42;;;;;;;9.57;6.50;;;;;;;18.44;74.14;101174.19;5051523;28;20021;-82
2021/07/09 00:16:13;;;;;;;10.18;5.43;;;;;;;18.43;73.90;101177.84;5039365;28;20116;-82
2021/07/09 00:18:38;;;;;;;7.97;5.07;;;;;;;18.48;73.62;101172.94;5031777;28;20076;-82
2021/07/09 00:21:04;;;;;;;7.82;5.65;;;;;;;18.49;73.38;101171.97;5031568;28;20034;-82
2021/07/09 00:23:29;;;;;;;7.88;5.88;;;;;;;18.49;72.78;101171.97;5031569;28;20399;-82
2021/07/09 00:25:55;;;;;;;11.60;7.10;;;;;;;18.45;74.39;101173.22;5031627;28;20029;-82
2021/07/09 00:28:20;;;;;;;8.70;6.47;;;;;;;18.42;74.21;101170.81;5031429;28;20022;-82
2021/07/09 00:30:46;;;;;;;9.40;6.85;;;;;;;18.40;73.54;101178.09;5042254;28;20037;-82
2021/07/09 00:33:11;;;;;;;9.93;6.22;;;;;;;18.34;73.70;101165.34;5035806;28;20455;-82
2021/07/09 00:35:36;;;;;;;9.50;6.13;;;;;;;18.35;73.29;101175.03;5031314;28;20480;-82
2021/07/09 00:38:02;;;;;;;8.63;6.32;;;;;;;18.33;73.68;101172.50;5031540;28;20431;-82
2021/07/09 00:40:27;;;;;;;9.15;6.97;;;;;;;18.35;73.73;101167.06;5032718;28;20029;-82
2021/07/09 00:42:53;;;;;;;9.55;5.88;;;;;;;18.40;74.15;101167.47;5035424;28;20021;-82
2021/07/09 00:45:18;;;;;;;12.27;7.07;;;;;;;18.38;73.92;101161.44;5035551;28;20031;-82
2021/07/09 00:47:45;;;;;;;9.43;6.55;;;;;;;18.30;75.56;101158.63;5048400;28;20024;-82
2021/07/09 00:50:11;;;;;;;12.27;6.80;;;;;;;18.54;74.37;101163.56;5055341;28;20029;-82
2021/07/09 00:52:37;;;;;;;10.02;7.65;;;;;;;18.61;75.36;101160.22;5055241;28;20107;-82
2021/07/09 00:55:04;;;;;;;10.20;6.68;;;;;;;18.66;75.26;101165.16;5055120;28;20033;-82
2021/07/09 00:57:29;;;;;;;9.77;7.03;;;;;;;18.74;74.54;101167.09;5055103;28;20032;-82
2021/07/09 00:59:55;;;;;;;11.10;6.40;;;;;;;18.71;73.44;101167.38;5054540;28;20029;-82
2021/07/09 01:02:20;;;;;;;11.63;7.53;;;;;;;18.69;73.90;101172.00;5054099;28;20087;-82
2021/07/09 01:04:45;;;;;;;10.73;6.47;;;;;;;18.77;74.61;101169.50;5053539;28;20549;-82
2021/07/09 01:07:11;;;;;;;10.77;7.03;;;;;;;18.75;74.01;101166.13;5034985;28;20022;-82
2021/07/09 01:09:36;;;;;;;16.80;9.38;;;;;;;18.76;74.78;101166.00;5035084;28;20029;-82
2021/07/09 01:12:02;;;;;;;13.85;9.20;;;;;;;18.79;74.74;101159.53;5034815;28;20021;-82
2021/07/09 01:14:27;;;;;;;19.73;11.20;;;;;;;18.93;76.01;101153.00;5037218;28;20044;-82
2021/07/09 01:16:53;;;;;;;19.13;9.98;;;;;;;18.97;75.96;101149.06;5041481;28;20029;-82
2021/07/09 01:19:20;;;;;;;16.13;11.02;;;;;;;19.00;76.66;101154.97;5054515;28;20029;-82
2021/07/09 01:21:47;;;;;;;17.80;10.32;;;;;;;19.14;76.20;101151.03;5054035;28;20496;-82
2021/07/09 01:24:13;;;;;;;21.73;12.63;;;;;;;19.24;76.08;101145.69;5049174;28;20026;-82
2021/07/09 01:26:40;;;;;;;21.92;12.77;;;;;;;19.30;75.58;101150.44;5034913;28;20030;-82
2021/07/09 01:29:06;;;;;;;18.60;11.82;;;;;;;19.37;75.49;101148.91;5034647;28;20041;-82
2021/07/09 01:31:33;;;;;;;19.70;11.65;;;;;;;19.42;75.59;101154.59;5034628;28;20391;-82
2021/07/09 01:33:59;;;;;;;24.17;13.77;;;;;;;19.42;75.40;101146.63;5035436;28;20060;-82
2021/07/09 01:36:25;;;;;;;23.02;14.35;;;;;;;19.44;75.72;101145.66;5051799;28;20475;-82
2021/07/09 01:38:51;;;;;;;26.08;15.20;;;;;;;19.48;75.66;101144.38;5054414;28;20029;-82
2021/07/09 01:41:17;;;;;;;22.48;14.60;;;;;;;19.46;74.85;101139.19;5054420;28;20040;-82
2021/07/09 01:43:45;;;;;;;26.92;15.23;;;;;;;19.44;75.24;101145.66;5054406;28;20474;-82
2021/07/09 01:46:10;;;;;;;23.10;14.63;;;;;;;19.31;76.54;101144.16;5054151;28;20029;-82
2021/07/09 01:48:36;;;;;;;28.00;15.82;;;;;;;19.20;76.57;101141.63;5054276;28;20470;-82
2021/07/09 01:51:03;;;;;;;31.83;17.40;;;;;;;19.02;78.11;101139.69;5037714;28;20068;-82
2021/07/09 01:53:28;;;;;;;27.60;17.25;;;;;;;19.07;77.40;101133.09;5034087;28;20025;-82
2021/07/09 01:55:53;;;;;;;24.48;16.27;;;;;;;19.08;77.33;101129.47;5034258;28;20040;-82
2021/07/09 01:58:19;;;;;;;22.92;14.95;;;;;;;19.13;77.20;101129.88;5034188;28;20599;-82
2021/07/09 02:00:45;;;;;;;27.08;17.08;;;;;;;19.00;77.37;101139.00;5035068;28;20483;-82
2021/07/09 02:03:11;;;;;;;26.92;17.50;;;;;;;19.03;77.29;101138.69;5034028;28;20395;-82
2021/07/09 02:05:36;;;;;;;27.40;16.60;;;;;;;19.08;77.27;101134.78;5035129;28;20477;-82
2021/07/09 02:08:02;;;;;;;26.77;15.82;;;;;;;19.07;78.04;101136.59;5034006;28;20033;-82
2021/07/09 02:10:34;;;;;;;26.02;16.50;;;;;;;19.11;77.83;101131.81;5033987;28;20033;-82
2021/07/09 02:13:01;;;;;;;26.45;16.90;;;;;;;19.14;77.79;101136.88;5033828;28;20021;-82
2021/07/09 02:15:33;;;;;;;28.08;17.45;;;;;;;19.13;78.11;101136.00;5033611;28;20067;-82
2021/07/09 02:17:59;;;;;;;24.63;16.17;;;;;;;19.22;77.59;101132.50;5033729;28;20393;-82
2021/07/09 02:20:26;;;;;;;26.75;17.00;;;;;;;19.16;77.65;101137.56;5034099;28;20029;-82
2021/07/09 02:22:56;;;;;;;25.02;16.48;;;;;;;19.17;77.85;101132.13;5041376;28;20510;-82
2021/07/09 02:25:22;;;;;;;23.90;15.60;;;;;;;19.18;78.10;101132.94;5033540;28;20503;-82
2021/07/09 02:27:49;;;;;;;24.02;15.25;;;;;;;19.24;77.41;101132.38;5033498;28;20107;-82
2021/07/09 02:30:16;;;;;;;27.55;16.98;;;;;;;19.19;77.88;101135.47;5033341;28;20380;-82
2021/07/09 02:32:42;;;;;;;23.52;15.43;;;;;;;19.19;78.31;101127.50;5033402;28;20032;-82
2021/07/09 02:35:12;;;;;;;29.00;16.40;;;;;;;19.19;78.29;101130.16;5033496;28;20076;-82
2021/07/09 02:37:37;;;;;;;25.98;16.25;;;;;;;19.20;78.25;101123.84;5044722;28;20419;-82
2021/07/09 02:40:07;;;;;;;23.67;16.25;;;;;;;19.25;78.76;101111.91;5037637;28;20018;-82
2021/07/09 02:42:33;;;;;;;27.65;16.45;;;;;;;19.26;77.62;101122.41;5034234;28;20033;-82
2021/07/09 02:44:59;;;;;;;29.95;17.48;;;;;;;19.26;78.39;101116.25;5052979;28;20087;-82
2021/07/09 02:47:24;;;;;;;27.90;16.05;;;;;;;19.27;77.71;101118.75;5053521;28;20021;-82
2021/07/09 02:49:49;;;;;;;25.33;16.83;;;;;;;19.27;78.03;101118.75;5053214;28;20021;-82
2021/07/09 02:52:15;;;;;;;29.02;16.90;;;;;;;19.27;78.56;101118.75;5041122;28;20037;-82
2021/07/09 02:54:40;;;;;;;23.77;15.63;;;;;;;19.31;78.73;101108.66;5032863;28;20041;-82
2021/07/09 02:57:06;;;;;;;26.35;16.88;;;;;;;19.26;77.94;101119.75;5033465;28;20029;-82
2021/07/09 02:59:31;;;;;;;28.42;16.23;;;;;;;19.30;78.19;101118.50;5033015;28;20072;-82
2021/07/09 03:01:56;;;;;;;25.25;15.38;;;;;;;19.34;78.55;101119.88;5049013;28;20036;-82
2021/07/09 03:04:22;;;;;;;27.00;16.20;;;;;;;19.34;77.73;101114.56;5052584;28;20120;-82
2021/07/09 03:06:47;;;;;;;25.27;16.60;;;;;;;19.27;77.61;101116.09;5052807;28;20374;-82
2021/07/09 03:09:12;;;;;;;26.67;16.60;;;;;;;19.20;78.56;101117.69;5052811;28;20025;-82
2021/07/09 03:11:39;;;;;;;26.73;15.95;;;;;;;19.32;78.19;101116.53;5043599;28;20063;-82
2021/07/09 03:14:09;;;;;;;25.45;15.85;;;;;;;19.39;77.95;101116.78;5045281;28;20067;-82
2021/07/09 03:16:35;;;;;;;22.48;15.23;;;;;;;19.32;77.25;101119.19;5051409;28;20021;-82
2021/07/09 03:19:02;;;;;;;24.85;16.27;;;;;;;19.27;77.60;101113.44;5034981;28;20025;-82
2021/07/09 03:21:27;;;;;;;25.48;16.55;;;;;;;19.15;78.61;101114.59;5032525;28;20064;-82
2021/07/09 03:23:52;;;;;;;26.27;16.45;;;;;;;19.12;78.82;101101.59;5032414;28;20025;-82
2021/07/09 03:26:18;;;;;;;25.10;15.32;;;;;;;19.09;79.59;101110.66;5032425;28;20025;-82
2021/07/09 03:28:43;;;;;;;24.85;15.25;;;;;;;19.21;78.61;101104.22;5032443;28;20025;-82
2021/07/09 03:31:09;;;;;;;24.35;15.27;;;;;;;19.27;78.14;101101.97;5032464;28;20500;-82
2021/07/09 03:33:35;;;;;;;22.02;14.45;;;;;;;19.26;77.88;101103.78;5035080;28;20025;-82
2021/07/09 03:36:01;;;;;;;23.13;13.80;;;;;;;19.27;78.13;101102.78;5032242;28;20029;-82
2021/07/09 03:38:26;;;;;;;21.67;13.88;;;;;;;19.25;78.08;101099.44;5032496;28;20033;-82
2021/07/09 03:40:52;;;;;;;21.98;14.43;;;;;;;19.25;77.12;101099.44;5032049;28;20025;-82
2021/07/09 03:43:17;;;;;;;26.55;16.13;;;;;;;19.24;77.85;101097.75;5032132;28;20510;-82
2021/07/09 03:45:43;;;;;;;20.77;14.43;;;;;;;19.24;77.74;101100.44;5032085;28;20545;-82
2021/07/09 03:48:08;;;;;;;21.50;14.63;;;;;;;19.24;77.49;101097.75;5045643;28;20025;-82
2021/07/09 03:50:33;;;;;;;22.83;14.38;;;;;;;19.24;76.81;101094.28;5033950;28;20489;-82
2021/07/09 03:52:59;;;;;;;22.52;14.90;;;;;;;19.22;77.56;101089.91;5031979;28;20022;-82
2021/07/09 03:55:24;;;;;;;19.25;13.43;;;;;;;19.20;77.61;101088.38;5031914;28;20040;-82
2021/07/09 03:57:50;;;;;;;24.23;13.93;;;;;;;19.18;77.68;101087.69;5032050;28;20026;-82
2021/07/09 04:00:16;;;;;;;22.60;13.02;;;;;;;19.18;77.55;101087.69;5033211;28;20478;-82
2021/07/09 04:02:42;;;;;;;21.15;13.80;;;;;;;19.14;77.20;101091.63;5031716;28;20060;-82
2021/07/09 04:05:09;;;;;;;22.60;13.10;;;;;;;19.16;77.43;101087.00;5031759;28;20095;-82
2021/07/09 04:07:34;;;;;;;20.80;13.25;;;;;;;19.11;77.78;101086.56;5031810;28;20034;-82
2021/07/09 04:10:00;;;;;;;21.80;14.18;;;;;;;19.20;77.11;101099.03;5031682;28;20033;-82
2021/07/09 04:12:25;;;;;;;24.70;13.60;;;;;;;19.18;77.26;101103.66;5031778;28;20083;-82
2021/07/09 04:14:50;;;;;;;23.98;14.65;;;;;;;19.11;77.56;101098.06;5031990;28;20028;-82
2021/07/09 04:17:16;;;;;;;20.48;13.40;;;;;;;19.09;77.76;101099.19;5051478;28;20032;-82
2021/07/09 04:19:41;;;;;;;24.35;14.05;;;;;;;19.11;78.03;101100.72;5051326;28;20025;-82
2021/07/09 04:22:07;;;;;;;27.90;14.85;;;;;;;19.11;77.77;101094.56;5051456;28;20180;-82
2021/07/09 04:24:32;;;;;;;20.88;13.48;;;;;;;19.07;77.59;101101.16;5051438;28;20601;-82
2021/07/09 04:26:58;;;;;;;20.63;12.60;;;;;;;19.08;77.32;101102.84;5051360;28;20124;-82
2021/07/09 04:29:23;;;;;;;19.52;13.38;;;;;;;19.13;77.88;101111.22;5051191;28;20116;-82
2021/07/09 04:31:49;;;;;;;18.88;12.45;;;;;;;19.15;77.50;101098.63;5031381;28;20044;-82
2021/07/09 04:34:14;;;;;;;19.42;12.63;;;;;;;19.19;77.65;101108.00;5031389;28;20047;-82
2021/07/09 04:36:40;;;;;;;17.00;11.45;;;;;;;19.24;78.11;101107.59;5031518;28;20468;-82
2021/07/09 04:39:05;;;;;;;16.50;11.05;;;;;;;19.21;77.67;101108.69;5031298;28;20026;-82
2021/07/09 04:41:31;;;;;;;14.32;9.90;;;;;;;19.28;77.54;101109.81;5032813;28;20085;-82
2021/07/09 04:43:56;;;;;;;17.58;9.85;;;;;;;19.29;77.33;101114.13;5032131;28;20035;-82
2021/07/09 04:46:21;;;;;;;14.45;10.05;;;;;;;19.32;76.87;101121.00;5031310;28;20160;-82
2021/07/09 04:48:47;;;;;;;11.70;8.65;;;;;;;19.36;76.67;101123.22;5031261;28;20068;-82
2021/07/09 04:51:12;;;;;;;15.95;10.25;;;;;;;19.40;76.45;101124.63;5046682;28;20029;-82
2021/07/09 04:53:37;;;;;;;17.42;10.10;;;;;;;19.41;76.88;101128.13;5031122;28;20104;-82
2021/07/09 04:56:03;;;;;;;16.38;10.43;;;;;;;19.45;77.13;101121.53;5031054;28;20104;-82
2021/07/09 04:58:28;;;;;;;16.38;9.88;;;;;;;19.44;76.74;101124.34;5031412;28;20068;-82
2021/07/09 05:00:54;;;;;;;18.35;11.90;;;;;;;19.46;76.41;101133.84;5032385;28;20108;-82
2021/07/09 05:03:19;;;;;;;16.45;11.35;;;;;;;19.50;76.27;101134.41;5031646;28;20037;-82
2021/07/09 05:05:44;;;;;;;19.85;11.60;;;;;;;19.55;76.11;101130.34;5031248;28;20025;-82
2021/07/09 05:08:10;;;;;;;15.02;11.63;;;;;;;19.59;75.14;101130.91;5031183;28;20092;-82
2021/07/09 05:10:35;;;;;;;21.55;12.57;;;;;;;19.59;75.89;101131.72;5035249;28;20060;-82
2021/07/09 05:13:04;;;;;;;20.45;13.15;;;;;;;19.56;74.95;101128.50;5043687;28;20025;-82
2021/07/09 05:15:30;;;;;;;21.05;13.48;;;;;;;19.56;75.19;101125.84;5032190;28;20483;-82
2021/07/09 05:17:55;;;;;;;21.67;12.60;;;;;;;19.59;75.60;101122.91;5040568;28;20025;-82
2021/07/09 05:20:21;;;;;;;23.00;13.70;;;;;;;19.70;75.44;101120.03;5047210;28;20437;-81
2021/07/09 05:22:46;;;;;;;15.57;11.18;;;;;;;19.75;74.79;101120.47;5035400;28;20032;-81
2021/07/09 05:25:12;;;;;;;18.95;11.45;;;;;;;19.73;75.32;101114.47;5045569;28;20033;-81
2021/07/09 05:27:37;;;;;;;18.23;10.82;;;;;;;19.78;74.25;101128.16;5046009;28;20078;-88
2021/07/09 05:30:04;;;;;;;20.17;11.05;;;;;;;19.79;74.54;101129.03;5044606;28;20056;-86
2021/07/09 05:32:30;;;;;;;20.38;11.60;;;;;;;19.91;73.95;101132.34;5033940;28;20108;-85
2021/07/09 05:34:56;;;;;;;13.98;9.93;;;;;;;19.93;73.96;101127.69;5034563;28;20532;-85
2021/07/09 05:37:23;;;;;;;14.52;9.85;;;;;;;19.74;73.94;101132.09;5037518;28;20021;-86
2021/07/09 05:39:48;;;;;;;13.98;8.85;;;;;;;19.90;73.96;101130.66;5038172;28;20082;-88
2021/07/09 05:42:14;;;;;;;13.07;8.90;;;;;;;19.96;73.46;101135.38;5037347;28;20379;-83
2021/07/09 05:44:41;;;;;;;14.88;8.73;;;;;;;20.04;73.18;101140.81;5036152;28;20029;-82
2021/07/09 05:47:06;;;;;;;11.18;8.43;;;;;;;20.05;72.64;101139.84;5036743;28;20162;-91
2021/07/09 05:49:32;;;;;;;13.30;7.60;;;;;;;20.00;71.80;101142.09;5039455;28;20033;-87
2021/07/09 05:51:57;;;;;;;8.93;6.53;;;;;;;20.15;71.79;101143.28;5037302;28;20064;-82
2021/07/09 05:54:23;;;;;;;9.75;6.28;;;;;;;20.22;71.27;101151.50;5045511;28;20056;-82
2021/07/09 05:56:48;;;;;;;11.52;6.20;;;;;;;20.26;71.46;101152.06;5041694;28;20037;-82
2021/07/09 05:59:13;;;;;;;8.43;5.72;;;;;;;20.30;71.11;101148.09;5039666;28;20511;-82
2021/07/09 06:01:39;;;;;;;11.23;6.45;;;;;;;20.16;71.37;101149.44;5045687;28;20024;-82
2021/07/09 06:04:05;;;;;;;9.43;6.00;;;;;;;20.35;70.32;101154.69;5049460;28;20076;-82
2021/07/09 06:06:30;;;;;;;7.93;5.88;;;;;;;20.48;69.86;101150.78;5039494;28;20024;-82
2021/07/09 06:08:55;;;;;;;10.50;6.15;;;;;;;20.58;69.41;101148.94;5051791;28;20089;-82
2021/07/09 06:11:22;;;;;;;9.95;5.85;;;;;;;20.41;70.50;101151.41;5053514;28;20055;-82
2021/07/09 06:13:47;;;;;;;7.88;5.53;;;;;;;20.45;70.60;101153.78;5053402;28;20033;-82
2021/07/09 06:16:14;;;;;;;10.30;6.47;;;;;;;20.64;69.12;101151.00;5039415;28;20083;-82
2021/07/09 06:18:39;;;;;;;11.43;6.30;;;;;;;20.80;69.48;101153.00;5052746;28;20036;-82
2021/07/09 06:21:05;;;;;;;9.13;5.53;;;;;;;20.34;71.01;101154.81;5049146;28;20021;-82
2021/07/09 06:23:30;;;;;;;9.50;6.60;;;;;;;20.54;70.13;101151.06;5049046;28;20029;-82
2021/07/09 06:25:56;;;;;;;12.30;6.72;;;;;;;20.71;69.23;101154.72;5034285;28;20495;-83
2021/07/09 06:28:22;;;;;;;13.23;7.18;;;;;;;20.97;69.39;101151.28;5049540;28;20131;-82
2021/07/09 06:30:47;;;;;;;11.30;6.53;;;;;;;20.94;69.05;101157.78;5047079;28;20388;-82
2021/07/09 06:33:12;;;;;;;9.70;6.75;;;;;;;20.90;68.93;101160.94;5043551;28;20024;-82
2021/07/09 06:35:39;;;;;;;13.25;6.78;;;;;;;21.19;68.64;101158.84;5052987;28;20111;-82
2021/07/09 06:38:05;;;;;;;10.02;6.25;;;;;;;21.24;68.26;101162.88;5049313;28;20436;-82
2021/07/09 06:40:31;;;;;;;10.82;6.25;;;;;;;21.23;68.28;101159.38;5046140;28;20534;-82
2021/07/09 06:42:56;;;;;;;7.47;5.95;;;;;;;21.28;66.83;101157.06;5033020;28;20037;-82
2021/07/09 06:45:22;;;;;;;9.45;5.55;;;;;;;21.19;68.26;101160.69;5033176;28;20474;-82
2021/07/09 06:47:47;;;;;;;11.98;6.28;;;;;;;20.97;68.19;101157.50;5043294;28;20036;-82
2021/07/09 06:50:13;;;;;;;14.10;6.40;;;;;;;20.73;69.99;101157.25;5052088;28;20025;-82
2021/07/09 06:52:40;;;;;;;7.72;5.75;;;;;;;21.12;68.79;101144.41;5052345;28;20024;-82
2021/07/09 06:55:06;;;;;;;7.70;6.00;;;;;;;21.37;67.68;101144.59;5044671;28;20484;-82
2021/07/09 06:57:31;;;;;;;7.90;5.93;;;;;;;21.69;67.22;101143.16;5033611;28;20034;-82
2021/07/09 06:59:57;;;;;;;9.02;5.68;;;;;;;21.76;66.39;101146.84;5032672;28;20552;-82
2021/07/09 07:02:22;;;;;;;9.85;5.60;;;;;;;21.96;65.73;101147.47;5033642;28;20025;-82
2021/07/09 07:04:50;;;;;;;7.55;5.28;;;;;;;22.11;64.73;101148.50;5032618;28;20048;-82
2021/07/09 07:07:15;;;;;;;10.38;5.93;;;;;;;21.85;65.27;101148.56;5036939;28;20059;-82
2021/07/09 07:09:41;;;;;;;8.73;5.18;;;;;;;22.18;63.93;101154.91;5051456;28;20052;-82
2021/07/09 07:12:06;;;;;;;7.70;5.53;;;;;;;22.63;62.49;101150.19;5051100;28;20037;-82
2021/07/09 07:14:33;;;;;;;8.80;5.22;;;;;;;22.88;61.88;101143.00;5052247;28;20033;-82
2021/07/09 07:16:58;;;;;;;8.90;5.60;;;;;;;23.03;61.01;101145.88;5052633;28;20020;-82
2021/07/09 07:19:25;;;;;;;10.88;5.70;;;;;;;23.57;60.45;101153.34;5052944;28;20025;-82
2021/07/09 07:21:51;;;;;;;8.63;5.70;;;;;;;23.17;60.66;101147.06;5050874;28;20036;-82
2021/07/09 07:24:16;;;;;;;6.50;4.70;;;;;;;24.50;57.55;101143.75;5032450;28;20255;-83
2021/07/09 07:26:42;;;;;;;7.03;4.75;;;;;;;24.82;56.50;101148.09;5042120;28;20070;-83
2021/07/09 07:29:07;;;;;;;8.13;5.03;;;;;;;24.39;56.58;101150.38;5050318;28;20033;-83
2021/07/09 07:31:33;;;;;;;17.80;5.43;;;;;;;25.07;53.95;101150.56;5032020;28;20099;-83
2021/07/09 07:33:58;;;;;;;5.45;3.90;;;;;;;26.36;51.62;101159.22;5031953;28;20021;-83
2021/07/09 07:36:24;;;;;;;6.70;3.42;;;;;;;26.83;49.47;101152.47;5031905;28;20030;-83
2021/07/09 07:38:49;;;;;;;6.00;3.40;;;;;;;26.77;49.32;101157.81;5050119;28;20100;-83
2021/07/09 07:41:17;;;;;;;6.90;3.80;;;;;;;26.63;48.80;101157.69;5052060;28;20106;-83
2021/07/09 07:43:43;;;;;;;8.77;3.67;;;;;;;27.03;48.10;101152.66;5051480;28;20131;-83
2021/07/09 07:46:09;;;;;;;5.18;3.25;;;;;;;27.10;49.10;101155.41;5046877;28;20478;-83
2021/07/09 07:48:36;;;;;;;5.63;2.80;;;;;;;26.91;48.90;101163.13;5045415;28;20021;-83
2021/07/09 07:51:01;;;;;;;3.47;2.60;;;;;;;26.77;48.25;101157.81;5051741;28;20060;-83
2021/07/09 07:53:27;;;;;;;7.70;3.63;;;;;;;26.80;48.60;101163.66;5044016;28;20065;-83
2021/07/09 07:55:52;;;;;;;10.02;3.00;;;;;;;26.28;48.61;101165.59;5031924;28;20034;-83
2021/07/09 07:58:18;;;;;;;6.13;3.05;;;;;;;26.28;48.69;101162.03;5041602;28;20072;-83
2021/07/09 08:00:43;;;;;;;8.90;2.83;;;;;;;26.33;47.99;101161.47;5044557;28;20022;-83
2021/07/09 08:03:08;;;;;;;4.68;3.17;;;;;;;26.01;49.27;101159.03;5031762;28;20592;-83
2021/07/09 08:05:34;;;;;;;3.00;2.20;;;;;;;26.59;48.95;101160.97;5031694;28;20036;-83
2021/07/09 08:07:59;;;;;;;4.47;2.38;;;;;;;27.05;46.99;101160.53;5037858;28;20029;-83
2021/07/09 08:10:25;;;;;;;7.75;2.40;;;;;;;27.21;46.50;101162.13;5051678;28;20031;-83
2021/07/09 08:12:51;;;;;;;5.18;2.70;;;;;;;26.98;45.69;101162.38;5051506;28;20052;-83
2021/07/09 08:15:17;;;;;;;4.97;2.40;;;;;;;26.79;46.50;101155.75;5050744;28;20532;-83
2021/07/09 08:17:42;;;;;;;4.55;2.50;;;;;;;26.82;46.73;101156.22;5044623;28;20026;-83
2021/07/09 08:20:09;;;;;;;3.13;2.30;;;;;;;26.29;47.89;101158.34;5051782;28;20414;-83
2021/07/09 08:22:36;;;;;;;3.20;2.10;;;;;;;26.36;46.69;101166.47;5051748;28;20021;-83
2021/07/09 08:25:05;;;;;;;2.40;1.60;;;;;;;26.32;46.98;101160.63;5049805;28;20586;-83
2021/07/09 08:27:30;;;;;;;2.97;2.15;;;;;;;25.68;47.67;101159.38;5040426;28;20038;-83
2021/07/09 08:29:56;;;;;;;5.28;2.50;;;;;;;26.04;47.81;101157.81;5050038;28;20087;-83
2021/07/09 08:32:21;;;;;;;3.30;2.10;;;;;;;26.16;47.77;101166.25;5044359;28;20480;-83
2021/07/09 08:34:47;;;;;;;3.25;2.50;;;;;;;26.14;48.68;101168.28;5030871;28;20484;-83
2021/07/09 08:37:12;;;;;;;7.40;2.50;;;;;;;26.00;48.45;101161.91;5031468;28;20025;-83
2021/07/09 08:39:37;;;;;;;3.97;2.30;;;;;;;25.73;49.34;101170.44;5047684;28;20429;-84
2021/07/09 08:42:03;;;;;;;3.47;2.50;;;;;;;26.16;49.65;101167.06;5049415;28;20033;-83
2021/07/09 08:44:28;;;;;;;10.18;3.38;;;;;;;26.33;48.19;101159.63;5051211;28;20033;-83
2021/07/09 08:46:56;;;;;;;3.72;2.25;;;;;;;26.29;47.33;101164.53;5043479;28;20033;-83
2021/07/09 08:49:22;;;;;;;2.65;2.20;;;;;;;26.47;46.38;101158.72;5041096;28;20498;-83
2021/07/09 08:51:48;;;;;;;1.75;1.50;;;;;;;26.52;45.47;101156.31;5040301;28;20060;-83
2021/07/09 08:54:15;;;;;;;2.47;1.50;;;;;;;26.57;45.08;101150.34;5049049;28;20120;-83
2021/07/09 08:56:41;;;;;;;6.90;1.70;;;;;;;26.98;44.25;101144.34;5047738;28;20068;-83
2021/07/09 08:59:07;;;;;;;3.55;1.52;;;;;;;28.41;42.37;101142.03;5041223;28;20037;-83
2021/07/09 09:01:47;;;;;;;3.00;1.70;;;;;;;29.37;40.44;101137.34;5046746;28;20028;-83
2021/07/09 09:04:13;;;;;;;2.45;1.48;;;;;;;30.43;39.08;101131.56;5045617;28;21279;-83
2021/07/09 09:06:38;;;;;;;4.60;2.00;;;;;;;31.03;37.32;101128.41;5054838;28;20029;-84
2021/07/09 09:09:16;;;;;;;1.58;1.10;;;;;;;32.16;35.98;101122.78;5049378;28;20048;-83
2021/07/09 09:12:03;;;;;;;2.17;1.40;;;;;;;32.39;33.00;101125.59;5038329;28;20052;-83
2021/07/09 09:14:28;;;;;;;1.98;1.45;;;;;;;32.70;33.12;101125.56;5045864;28;20048;-84
2021/07/09 09:16:54;;;;;;;2.67;1.40;;;;;;;32.07;33.38;101121.44;5037417;28;20435;-84
2021/07/09 09:19:21;;;;;;;2.22;1.30;;;;;;;31.66;33.88;101112.97;5037480;28;20033;-83
2021/07/09 09:22:06;;;;;;;1.63;1.42;;;;;;;31.92;33.84;101109.09;5052391;28;20033;-83
2021/07/09 09:24:32;;;;;;;2.38;1.58;;;;;;;31.59;34.07;101113.03;5039762;28;20120;-83
2021/07/09 09:26:57;;;;;;;1.80;1.00;;;;;;;32.22;34.49;101111.00;5034563;28;20113;-84
2021/07/09 09:29:25;;;;;;;2.20;1.42;;;;;;;32.47;32.54;101108.13;5035105;28;20108;-83
2021/07/09 09:31:56;;;;;;;3.92;1.30;;;;;;;32.93;31.62;101111.16;5034172;28;20029;-81
2021/07/09 09:34:41;;;;;;;1.25;1.15;;;;;;;33.35;31.36;101119.22;5034189;28;20029;-81
2021/07/09 09:37:08;;;;;;;2.30;1.45;;;;;;;32.61;32.06;101108.78;5034423;28;20029;-81
2021/07/09 09:39:34;;;;;;;1.65;1.02;;;;;;;33.59;31.88;101109.09;5034557;28;20021;-81
2021/07/09 09:42:23;;;;;;;3.03;1.38;;;;;;;35.20;27.96;101111.75;5034260;28;20084;-81
2021/07/09 09:44:52;;;;;;;1.98;1.08;;;;;;;35.88;27.52;101109.59;5034014;28;20025;-81
2021/07/09 09:47:22;;;;;;;2.05;1.10;;;;;;;35.90;27.57;101099.25;5037065;28;20038;-81
2021/07/09 09:49:53;;;;;;;1.75;0.98;;;;;;;36.86;26.38;101105.91;5037911;28;20025;-82
2021/07/09 09:52:40;;;;;;;1.60;0.93;;;;;;;37.15;25.42;101106.38;5042363;28;20040;-81
2021/07/09 09:55:32;;;;;;;1.10;0.80;;;;;;;37.41;25.38;101103.78;5042418;28;20036;-82
2021/07/09 09:58:07;;;;;;;5.35;1.42;;;;;;;36.81;25.01;101108.59;5037384;28;20048;-81
2021/07/09 10:00:32;;;;;;;4.32;1.20;;;;;;;35.72;27.29;101103.16;5047795;28;20168;-81
2021/07/09 10:02:58;;;;;;;11.25;2.60;;;;;;;36.83;25.78;101103.66;5037216;28;20108;-82
2021/07/09 10:05:24;;;;;;;2.10;1.20;;;;;;;36.92;25.25;101099.38;5040472;28;20040;-82
2021/07/09 10:07:52;;;;;;;2.67;1.10;;;;;;;37.49;25.92;101103.25;5049313;28;20033;-82
2021/07/09 10:10:18;;;;;;;1.13;0.90;;;;;;;37.27;25.90;101100.69;5035983;28;20140;-82
2021/07/09 10:12:44;;;;;;;1.70;1.20;;;;;;;36.78;25.70;101103.66;5052284;28;20025;-82
2021/07/09 10:15:10;;;;;;;3.28;1.00;;;;;;;36.09;26.99;101102.47;5053503;28;20056;-82
2021/07/09 10:17:38;;;;;;;3.00;0.93;;;;;;;34.46;28.69;101116.28;5053473;28;20018;-82
2021/07/09 10:20:04;;;;;;;1.00;0.90;;;;;;;33.80;28.84;101115.84;5044840;28;20117;-82
2021/07/09 10:22:29;;;;;;;2.83;0.80;;;;;;;32.49;30.24;101105.19;5060775;28;20033;-81
2021/07/09 10:24:56;;;;;;;5.20;1.45;;;;;;;32.57;30.88;101097.53;5053604;28;20041;-81
2021/07/09 10:27:23;;;;;;;7.18;0.98;;;;;;;32.01;31.52;101098.75;5053655;28;20032;-81
2021/07/09 10:29:50;;;;;;;1.17;0.80;;;;;;;31.92;33.15;101098.22;5053526;28;20571;-81
2021/07/09 10:32:35;;;;;;;2.38;1.23;;;;;;;32.59;30.71;101100.03;5053531;28;20065;-84
2021/07/09 10:35:02;;;;;;;1.08;0.63;;;;;;;32.05;31.23;101093.69;5053251;28;20037;-81
2021/07/09 10:37:31;;;;;;;0.95;0.47;;;;;;;31.57;31.88;101093.44;5039308;28;20041;-81
2021/07/09 10:40:07;;;;;;;1.13;0.70;;;;;;;31.32;32.92;101096.22;5033279;28;20031;-81
2021/07/09 10:42:40;;;;;;;4.05;0.88;;;;;;;31.05;33.10;101105.66;5033157;28;20036;-83
2021/07/09 10:45:23;;;;;;;20.45;2.15;;;;;;;30.58;32.88;101106.84;5033173;28;20072;-83
2021/07/09 10:48:11;;;;;;;3.35;0.65;;;;;;;30.29;33.51;101108.25;5033897;28;20108;-83
2021/07/09 10:50:43;;;;;;;2.47;0.70;;;;;;;30.84;33.46;101108.50;5034209;28;20543;-84
2021/07/09 10:53:11;;;;;;;0.57;0.40;;;;;;;30.25;33.62;101109.75;5039548;28;20035;-83
2021/07/09 10:55:57;;;;;;;2.90;0.60;;;;;;;30.19;34.22;101110.63;5052894;28;20032;-83
2021/07/09 10:58:27;;;;;;;5.13;0.63;;;;;;;30.01;33.75;101101.31;5054428;28;20104;-83
2021/07/09 11:01:04;;;;;;;0.85;0.68;;;;;;;31.47;34.17;101098.56;5051338;28;20021;-83
2021/07/09 11:03:53;;;;;;;1.85;0.70;;;;;;;31.70;33.27;101091.63;5052704;28;20025;-83
2021/07/09 11:06:33;;;;;;;1.00;0.77;;;;;;;32.16;31.40;101084.75;5052941;28;20154;-81
2021/07/09 11:09:03;;;;;;;0.85;0.63;;;;;;;32.03;31.92;101084.94;5052695;28;20029;-81
2021/07/09 11:11:49;;;;;;;2.17;0.63;;;;;;;33.31;30.46;101091.66;5052827;28;20033;-82
2021/07/09 11:14:20;;;;;;;2.25;0.85;;;;;;;32.28;30.71;101088.34;5053046;28;20040;-81
2021/07/09 11:17:00;;;;;;;;;;;;;;;32.89;29.26;101082.78;5049751;28;20053;-82
2021/07/09 11:19:33;;;;;;;73.78;7.40;;;;;;;32.85;30.19;101081.63;5032636;28;20008;-82